Farden, Minnesota
Current Conditions -  °F | °C
As of 11:15 PM on Wednesday 22 Oct 2014 (Local Time) from KY49 Reporting Station
Drizzle Drizzle  
Wind Chill: 50°   Ceiling: 2600
Heat Index: 50°   Visibility: 10mi
Dew Point: 47°   Wind: 3mph
Humidity: 88%   Direction: 180°S
Pressure: 29.93"   Gusts: NA
Location:  47.3012°N, 94.5426°W
Report Text: KY49 230415Z AUTO 18003KT 10SM DZ OVC026 10/08 A2993 RMK AO2 T01010082
Loading
Personal Weather Stations






























Interactive Weather Map
Tropical Storm Tracking
New forecast layout! Learn more

10-Day Weather Forecast

Advertisements
Track Severe Weather on mobile